sensor_id;sensor_type;location;lat;lon;timestamp;P1;durP1;ratioP1;P2;durP2;ratioP2
68757;SDS011;55747;51.998;4.466;2022-08-11T00:01:19;9.60;;;5.75;;
68757;SDS011;55747;51.998;4.466;2022-08-11T00:03:49;7.97;;;5.75;;
68757;SDS011;55747;51.998;4.466;2022-08-11T00:06:26;7.03;;;5.93;;
68757;SDS011;55747;51.998;4.466;2022-08-11T00:08:53;6.40;;;5.70;;
68757;SDS011;55747;51.998;4.466;2022-08-11T00:11:20;6.68;;;5.72;;
68757;SDS011;55747;51.998;4.466;2022-08-11T00:13:55;6.35;;;5.68;;
68757;SDS011;55747;51.998;4.466;2022-08-11T00:16:22;7.50;;;5.75;;
68757;SDS011;55747;51.998;4.466;2022-08-11T00:18:51;7.35;;;5.90;;
68757;SDS011;55747;51.998;4.466;2022-08-11T00:21:19;7.95;;;6.50;;
68757;SDS011;55747;51.998;4.466;2022-08-11T00:23:51;10.07;;;6.15;;
68757;SDS011;55747;51.998;4.466;2022-08-11T00:26:22;7.25;;;5.90;;
68757;SDS011;55747;51.998;4.466;2022-08-11T00:28:49;7.80;;;6.05;;
68757;SDS011;55747;51.998;4.466;2022-08-11T00:31:26;7.22;;;6.18;;
68757;SDS011;55747;51.998;4.466;2022-08-11T00:33:54;7.20;;;5.90;;
68757;SDS011;55747;51.998;4.466;2022-08-11T00:36:22;7.75;;;6.28;;
68757;SDS011;55747;51.998;4.466;2022-08-11T00:38:52;15.25;;;6.72;;
68757;SDS011;55747;51.998;4.466;2022-08-11T00:49:13;8.80;;;6.05;;
68757;SDS011;55747;51.998;4.466;2022-08-11T01:00:31;11.93;;;6.30;;
68757;SDS011;55747;51.998;4.466;2022-08-11T01:05:50;8.18;;;6.20;;
68757;SDS011;55747;51.998;4.466;2022-08-11T01:08:36;8.82;;;6.35;;
68757;SDS011;55747;51.998;4.466;2022-08-11T01:11:33;7.30;;;6.32;;
68757;SDS011;55747;51.998;4.466;2022-08-11T01:30:46;9.50;;;6.28;;
68757;SDS011;55747;51.998;4.466;2022-08-11T01:45:41;8.38;;;6.47;;
68757;SDS011;55747;51.998;4.466;2022-08-11T01:51:07;10.55;;;6.50;;
68757;SDS011;55747;51.998;4.466;2022-08-11T01:59:17;7.60;;;6.35;;
68757;SDS011;55747;51.998;4.466;2022-08-11T02:01:53;7.95;;;6.07;;
68757;SDS011;55747;51.998;4.466;2022-08-11T02:15:24;10.38;;;6.90;;
68757;SDS011;55747;51.998;4.466;2022-08-11T02:18:09;9.82;;;6.40;;
68757;SDS011;55747;51.998;4.466;2022-08-11T02:23:44;10.02;;;6.22;;
68757;SDS011;55747;51.998;4.466;2022-08-11T02:26:24;7.85;;;6.53;;
68757;SDS011;55747;51.998;4.466;2022-08-11T02:31:37;7.55;;;6.45;;
68757;SDS011;55747;51.998;4.466;2022-08-11T02:34:46;8.98;;;6.65;;
68757;SDS011;55747;51.998;4.466;2022-08-11T02:40:15;8.50;;;6.60;;
68757;SDS011;55747;51.998;4.466;2022-08-11T02:59:03;9.55;;;6.72;;
68757;SDS011;55747;51.998;4.466;2022-08-11T03:01:58;9.43;;;6.80;;
68757;SDS011;55747;51.998;4.466;2022-08-11T03:04:43;12.50;;;6.82;;
68757;SDS011;55747;51.998;4.466;2022-08-11T03:12:46;11.82;;;7.20;;
68757;SDS011;55747;51.998;4.466;2022-08-11T03:21:40;10.82;;;6.80;;
68757;SDS011;55747;51.998;4.466;2022-08-11T03:24:20;8.95;;;6.97;;
68757;SDS011;55747;51.998;4.466;2022-08-11T03:27:19;9.23;;;6.68;;
68757;SDS011;55747;51.998;4.466;2022-08-11T03:29:39;12.80;;;7.35;;
68757;SDS011;55747;51.998;4.466;2022-08-11T03:32:11;11.00;;;7.10;;
68757;SDS011;55747;51.998;4.466;2022-08-11T03:34:49;10.63;;;7.35;;
68757;SDS011;55747;51.998;4.466;2022-08-11T03:37:24;14.00;;;7.43;;
68757;SDS011;55747;51.998;4.466;2022-08-11T03:46:13;10.50;;;7.55;;
68757;SDS011;55747;51.998;4.466;2022-08-11T03:48:53;8.50;;;7.57;;
68757;SDS011;55747;51.998;4.466;2022-08-11T03:51:30;11.40;;;7.50;;
68757;SDS011;55747;51.998;4.466;2022-08-11T04:03:32;10.65;;;7.93;;
68757;SDS011;55747;51.998;4.466;2022-08-11T04:06:16;9.45;;;8.02;;
68757;SDS011;55747;51.998;4.466;2022-08-11T04:12:43;13.45;;;7.50;;
68757;SDS011;55747;51.998;4.466;2022-08-11T04:24:49;10.20;;;7.40;;
68757;SDS011;55747;51.998;4.466;2022-08-11T04:30:18;10.18;;;7.95;;
68757;SDS011;55747;51.998;4.466;2022-08-11T04:38:18;8.85;;;7.32;;
68757;SDS011;55747;51.998;4.466;2022-08-11T04:41:17;10.25;;;7.43;;
68757;SDS011;55747;51.998;4.466;2022-08-11T04:55:53;10.15;;;6.88;;
68757;SDS011;55747;51.998;4.466;2022-08-11T05:07:50;11.65;;;5.82;;
68757;SDS011;55747;51.998;4.466;2022-08-11T05:13:21;9.25;;;5.45;;
68757;SDS011;55747;51.998;4.466;2022-08-11T05:16:11;8.45;;;5.15;;
68757;SDS011;55747;51.998;4.466;2022-08-11T05:18:58;7.05;;;4.93;;
68757;SDS011;55747;51.998;4.466;2022-08-11T05:21:45;8.55;;;5.32;;
68757;SDS011;55747;51.998;4.466;2022-08-11T05:27:29;8.68;;;5.40;;
68757;SDS011;55747;51.998;4.466;2022-08-11T05:30:18;7.25;;;5.00;;
68757;SDS011;55747;51.998;4.466;2022-08-11T05:33:09;8.88;;;4.97;;
68757;SDS011;55747;51.998;4.466;2022-08-11T05:38:32;6.50;;;4.95;;
68757;SDS011;55747;51.998;4.466;2022-08-11T05:41:21;9.85;;;5.20;;
68757;SDS011;55747;51.998;4.466;2022-08-11T05:44:07;7.43;;;5.00;;
68757;SDS011;55747;51.998;4.466;2022-08-11T05:46:53;6.20;;;4.88;;
68757;SDS011;55747;51.998;4.466;2022-08-11T05:49:37;5.93;;;4.90;;
68757;SDS011;55747;51.998;4.466;2022-08-11T05:52:23;9.35;;;5.20;;
68757;SDS011;55747;51.998;4.466;2022-08-11T05:55:09;10.55;;;5.25;;
68757;SDS011;55747;51.998;4.466;2022-08-11T05:57:54;9.20;;;5.10;;
68757;SDS011;55747;51.998;4.466;2022-08-11T06:00:23;10.18;;;5.13;;
68757;SDS011;55747;51.998;4.466;2022-08-11T06:02:52;9.35;;;4.65;;
68757;SDS011;55747;51.998;4.466;2022-08-11T06:05:20;11.10;;;4.80;;
68757;SDS011;55747;51.998;4.466;2022-08-11T06:07:46;7.18;;;4.85;;
68757;SDS011;55747;51.998;4.466;2022-08-11T06:10:12;8.57;;;4.60;;
68757;SDS011;55747;51.998;4.466;2022-08-11T06:12:38;6.35;;;4.60;;
68757;SDS011;55747;51.998;4.466;2022-08-11T06:15:07;9.50;;;5.10;;
68757;SDS011;55747;51.998;4.466;2022-08-11T06:17:35;6.95;;;4.75;;
68757;SDS011;55747;51.998;4.466;2022-08-11T06:20:09;5.95;;;4.70;;
68757;SDS011;55747;51.998;4.466;2022-08-11T06:22:37;6.40;;;4.80;;
68757;SDS011;55747;51.998;4.466;2022-08-11T06:25:04;5.78;;;4.65;;
68757;SDS011;55747;51.998;4.466;2022-08-11T06:27:32;8.88;;;4.90;;
68757;SDS011;55747;51.998;4.466;2022-08-11T06:30:01;7.93;;;4.68;;
68757;SDS011;55747;51.998;4.466;2022-08-11T06:32:37;8.30;;;4.72;;
68757;SDS011;55747;51.998;4.466;2022-08-11T06:42:46;7.30;;;4.80;;
68757;SDS011;55747;51.998;4.466;2022-08-11T06:48:04;9.75;;;5.05;;
68757;SDS011;55747;51.998;4.466;2022-08-11T06:50:34;6.05;;;4.55;;
68757;SDS011;55747;51.998;4.466;2022-08-11T06:53:18;8.85;;;4.80;;
68757;SDS011;55747;51.998;4.466;2022-08-11T06:55:45;7.15;;;4.97;;
68757;SDS011;55747;51.998;4.466;2022-08-11T06:58:35;7.93;;;4.30;;
68757;SDS011;55747;51.998;4.466;2022-08-11T07:01:28;9.32;;;4.35;;
68757;SDS011;55747;51.998;4.466;2022-08-11T07:04:06;6.97;;;4.32;;
68757;SDS011;55747;51.998;4.466;2022-08-11T07:06:42;7.22;;;4.05;;
68757;SDS011;55747;51.998;4.466;2022-08-11T07:09:45;6.50;;;4.30;;
68757;SDS011;55747;51.998;4.466;2022-08-11T07:12:46;5.80;;;4.50;;
68757;SDS011;55747;51.998;4.466;2022-08-11T07:15:34;7.43;;;4.72;;
68757;SDS011;55747;51.998;4.466;2022-08-11T07:18:19;6.55;;;4.63;;
68757;SDS011;55747;51.998;4.466;2022-08-11T07:24:18;6.35;;;4.25;;
68757;SDS011;55747;51.998;4.466;2022-08-11T07:27:17;8.65;;;4.03;;
68757;SDS011;55747;51.998;4.466;2022-08-11T07:30:10;6.75;;;3.80;;
68757;SDS011;55747;51.998;4.466;2022-08-11T07:32:53;7.97;;;3.83;;
68757;SDS011;55747;51.998;4.466;2022-08-11T07:35:53;5.55;;;4.15;;
68757;SDS011;55747;51.998;4.466;2022-08-11T07:38:37;4.50;;;3.78;;
68757;SDS011;55747;51.998;4.466;2022-08-11T07:44:32;6.05;;;3.70;;
68757;SDS011;55747;51.998;4.466;2022-08-11T07:47:47;8.45;;;3.38;;
68757;SDS011;55747;51.998;4.466;2022-08-11T07:50:43;5.25;;;3.60;;
68757;SDS011;55747;51.998;4.466;2022-08-11T07:53:41;5.15;;;3.17;;
68757;SDS011;55747;51.998;4.466;2022-08-11T07:56:09;6.20;;;3.17;;
68757;SDS011;55747;51.998;4.466;2022-08-11T07:58:49;7.78;;;3.85;;
68757;SDS011;55747;51.998;4.466;2022-08-11T08:01:40;6.43;;;4.18;;
68757;SDS011;55747;51.998;4.466;2022-08-11T08:04:31;7.90;;;3.85;;
68757;SDS011;55747;51.998;4.466;2022-08-11T08:07:41;8.32;;;3.83;;
68757;SDS011;55747;51.998;4.466;2022-08-11T08:10:49;8.40;;;3.85;;
68757;SDS011;55747;51.998;4.466;2022-08-11T08:13:37;10.00;;;3.92;;
68757;SDS011;55747;51.998;4.466;2022-08-11T08:16:37;7.00;;;4.13;;
68757;SDS011;55747;51.998;4.466;2022-08-11T08:19:42;7.30;;;4.18;;
68757;SDS011;55747;51.998;4.466;2022-08-11T08:22:25;7.28;;;4.20;;
68757;SDS011;55747;51.998;4.466;2022-08-11T08:25:09;10.55;;;3.90;;
68757;SDS011;55747;51.998;4.466;2022-08-11T08:27:48;6.97;;;4.22;;
68757;SDS011;55747;51.998;4.466;2022-08-11T08:30:34;6.45;;;4.47;;
68757;SDS011;55747;51.998;4.466;2022-08-11T08:33:24;6.78;;;4.13;;
68757;SDS011;55747;51.998;4.466;2022-08-11T08:35:52;5.47;;;4.20;;
68757;SDS011;55747;51.998;4.466;2022-08-11T08:38:49;8.30;;;3.85;;
68757;SDS011;55747;51.998;4.466;2022-08-11T08:41:32;6.53;;;3.65;;
68757;SDS011;55747;51.998;4.466;2022-08-11T08:44:01;7.13;;;3.15;;
68757;SDS011;55747;51.998;4.466;2022-08-11T08:46:43;6.63;;;3.60;;
68757;SDS011;55747;51.998;4.466;2022-08-11T08:49:15;6.57;;;3.65;;
68757;SDS011;55747;51.998;4.466;2022-08-11T08:51:43;6.10;;;3.30;;
68757;SDS011;55747;51.998;4.466;2022-08-11T08:54:14;4.87;;;3.40;;
68757;SDS011;55747;51.998;4.466;2022-08-11T08:56:44;10.15;;;3.65;;
68757;SDS011;55747;51.998;4.466;2022-08-11T08:59:11;6.68;;;3.35;;
68757;SDS011;55747;51.998;4.466;2022-08-11T09:01:46;9.00;;;3.70;;
68757;SDS011;55747;51.998;4.466;2022-08-11T09:04:15;10.40;;;3.78;;
68757;SDS011;55747;51.998;4.466;2022-08-11T09:06:44;6.63;;;3.30;;
68757;SDS011;55747;51.998;4.466;2022-08-11T09:09:20;8.75;;;3.60;;
68757;SDS011;55747;51.998;4.466;2022-08-11T09:11:47;8.60;;;3.58;;
68757;SDS011;55747;51.998;4.466;2022-08-11T09:14:22;8.30;;;3.03;;
68757;SDS011;55747;51.998;4.466;2022-08-11T09:17:14;6.55;;;2.90;;
68757;SDS011;55747;51.998;4.466;2022-08-11T09:19:42;7.95;;;2.72;;
68757;SDS011;55747;51.998;4.466;2022-08-11T09:22:10;5.60;;;2.95;;
68757;SDS011;55747;51.998;4.466;2022-08-11T09:24:55;7.60;;;3.00;;
68757;SDS011;55747;51.998;4.466;2022-08-11T09:27:40;5.13;;;2.50;;
68757;SDS011;55747;51.998;4.466;2022-08-11T09:30:07;5.53;;;2.85;;
68757;SDS011;55747;51.998;4.466;2022-08-11T09:32:38;3.53;;;2.42;;
68757;SDS011;55747;51.998;4.466;2022-08-11T09:35:06;8.75;;;2.72;;
68757;SDS011;55747;51.998;4.466;2022-08-11T09:37:32;5.20;;;2.50;;
68757;SDS011;55747;51.998;4.466;2022-08-11T09:40:17;8.50;;;2.55;;
68757;SDS011;55747;51.998;4.466;2022-08-11T09:42:58;5.93;;;2.40;;
68757;SDS011;55747;51.998;4.466;2022-08-11T09:45:46;11.30;;;2.97;;
68757;SDS011;55747;51.998;4.466;2022-08-11T09:48:19;4.55;;;2.58;;
68757;SDS011;55747;51.998;4.466;2022-08-11T09:50:49;5.85;;;2.60;;
68757;SDS011;55747;51.998;4.466;2022-08-11T09:53:19;5.47;;;2.30;;
68757;SDS011;55747;51.998;4.466;2022-08-11T09:55:46;5.50;;;2.80;;
68757;SDS011;55747;51.998;4.466;2022-08-11T09:58:15;8.05;;;2.83;;
68757;SDS011;55747;51.998;4.466;2022-08-11T10:00:48;6.10;;;2.80;;
68757;SDS011;55747;51.998;4.466;2022-08-11T10:03:15;10.02;;;3.03;;
68757;SDS011;55747;51.998;4.466;2022-08-11T10:05:50;8.25;;;2.78;;
68757;SDS011;55747;51.998;4.466;2022-08-11T10:08:39;6.87;;;2.90;;
68757;SDS011;55747;51.998;4.466;2022-08-11T10:11:10;7.60;;;3.03;;
68757;SDS011;55747;51.998;4.466;2022-08-11T10:13:40;5.97;;;2.50;;
68757;SDS011;55747;51.998;4.466;2022-08-11T10:16:27;7.05;;;2.67;;
68757;SDS011;55747;51.998;4.466;2022-08-11T10:18:54;5.35;;;2.80;;
68757;SDS011;55747;51.998;4.466;2022-08-11T10:21:43;3.05;;;2.50;;
68757;SDS011;55747;51.998;4.466;2022-08-11T10:24:31;5.38;;;2.17;;
68757;SDS011;55747;51.998;4.466;2022-08-11T10:27:16;4.10;;;2.25;;
68757;SDS011;55747;51.998;4.466;2022-08-11T10:29:43;4.15;;;2.65;;
68757;SDS011;55747;51.998;4.466;2022-08-11T10:32:28;8.45;;;2.40;;
68757;SDS011;55747;51.998;4.466;2022-08-11T10:35:14;4.00;;;2.30;;
68757;SDS011;55747;51.998;4.466;2022-08-11T10:37:42;5.10;;;2.30;;
68757;SDS011;55747;51.998;4.466;2022-08-11T10:40:12;6.38;;;2.17;;
68757;SDS011;55747;51.998;4.466;2022-08-11T10:42:40;6.47;;;2.17;;
68757;SDS011;55747;51.998;4.466;2022-08-11T10:45:43;6.75;;;2.10;;
68757;SDS011;55747;51.998;4.466;2022-08-11T10:48:29;5.22;;;2.22;;
68757;SDS011;55747;51.998;4.466;2022-08-11T10:51:04;3.65;;;2.10;;
68757;SDS011;55747;51.998;4.466;2022-08-11T10:53:38;4.38;;;2.40;;
68757;SDS011;55747;51.998;4.466;2022-08-11T10:56:39;6.00;;;2.30;;
68757;SDS011;55747;51.998;4.466;2022-08-11T10:59:27;5.35;;;2.20;;
68757;SDS011;55747;51.998;4.466;2022-08-11T11:01:54;3.60;;;2.00;;
68757;SDS011;55747;51.998;4.466;2022-08-11T11:04:27;2.55;;;1.90;;
68757;SDS011;55747;51.998;4.466;2022-08-11T11:07:04;3.08;;;1.77;;
68757;SDS011;55747;51.998;4.466;2022-08-11T11:12:15;4.50;;;2.00;;
68757;SDS011;55747;51.998;4.466;2022-08-11T11:15:06;4.35;;;2.20;;
68757;SDS011;55747;51.998;4.466;2022-08-11T11:18:05;2.00;;;1.88;;
68757;SDS011;55747;51.998;4.466;2022-08-11T11:20:39;1.98;;;1.77;;
68757;SDS011;55747;51.998;4.466;2022-08-11T11:23:17;4.15;;;1.98;;
68757;SDS011;55747;51.998;4.466;2022-08-11T11:36:55;5.63;;;2.40;;
68757;SDS011;55747;51.998;4.466;2022-08-11T11:39:23;4.10;;;2.10;;
68757;SDS011;55747;51.998;4.466;2022-08-11T11:41:55;6.57;;;2.10;;
68757;SDS011;55747;51.998;4.466;2022-08-11T11:44:23;6.15;;;2.50;;
68757;SDS011;55747;51.998;4.466;2022-08-11T11:46:50;6.10;;;2.40;;
68757;SDS011;55747;51.998;4.466;2022-08-11T11:49:24;6.20;;;2.20;;
68757;SDS011;55747;51.998;4.466;2022-08-11T11:52:05;3.33;;;2.40;;
68757;SDS011;55747;51.998;4.466;2022-08-11T11:54:33;6.10;;;2.20;;
68757;SDS011;55747;51.998;4.466;2022-08-11T11:57:00;4.82;;;2.10;;
68757;SDS011;55747;51.998;4.466;2022-08-11T11:59:45;5.75;;;2.20;;
68757;SDS011;55747;51.998;4.466;2022-08-11T12:02:32;6.32;;;2.40;;
68757;SDS011;55747;51.998;4.466;2022-08-11T12:04:59;4.95;;;2.13;;
68757;SDS011;55747;51.998;4.466;2022-08-11T12:07:26;4.55;;;2.38;;
68757;SDS011;55747;51.998;4.466;2022-08-11T12:10:12;4.07;;;2.28;;
68757;SDS011;55747;51.998;4.466;2022-08-11T12:12:40;4.00;;;1.90;;
68757;SDS011;55747;51.998;4.466;2022-08-11T12:15:24;7.00;;;2.30;;
68757;SDS011;55747;51.998;4.466;2022-08-11T12:17:50;3.88;;;1.83;;
68757;SDS011;55747;51.998;4.466;2022-08-11T12:20:16;6.93;;;2.33;;
68757;SDS011;55747;51.998;4.466;2022-08-11T12:22:45;6.10;;;2.20;;
68757;SDS011;55747;51.998;4.466;2022-08-11T12:25:30;4.57;;;2.00;;
68757;SDS011;55747;51.998;4.466;2022-08-11T12:28:15;3.00;;;1.98;;
68757;SDS011;55747;51.998;4.466;2022-08-11T12:30:41;5.68;;;1.83;;
68757;SDS011;55747;51.998;4.466;2022-08-11T12:33:11;3.95;;;2.03;;
68757;SDS011;55747;51.998;4.466;2022-08-11T12:35:38;3.35;;;1.70;;
68757;SDS011;55747;51.998;4.466;2022-08-11T12:38:05;6.25;;;1.90;;
68757;SDS011;55747;51.998;4.466;2022-08-11T12:40:31;3.33;;;1.75;;
68757;SDS011;55747;51.998;4.466;2022-08-11T12:43:18;6.75;;;2.20;;
68757;SDS011;55747;51.998;4.466;2022-08-11T12:49:00;3.90;;;1.73;;
68757;SDS011;55747;51.998;4.466;2022-08-11T12:51:52;5.68;;;1.80;;
68757;SDS011;55747;51.998;4.466;2022-08-11T12:57:58;4.25;;;2.10;;
68757;SDS011;55747;51.998;4.466;2022-08-11T13:00:41;4.28;;;2.05;;
68757;SDS011;55747;51.998;4.466;2022-08-11T13:03:27;3.53;;;1.85;;
68757;SDS011;55747;51.998;4.466;2022-08-11T13:06:11;4.15;;;2.03;;
68757;SDS011;55747;51.998;4.466;2022-08-11T13:08:38;6.05;;;2.03;;
68757;SDS011;55747;51.998;4.466;2022-08-11T13:11:05;1.90;;;1.70;;
68757;SDS011;55747;51.998;4.466;2022-08-11T13:13:51;3.70;;;1.80;;
68757;SDS011;55747;51.998;4.466;2022-08-11T13:16:21;4.97;;;2.00;;
68757;SDS011;55747;51.998;4.466;2022-08-11T13:19:16;7.43;;;1.80;;
68757;SDS011;55747;51.998;4.466;2022-08-11T13:21:44;2.65;;;1.80;;
68757;SDS011;55747;51.998;4.466;2022-08-11T13:24:11;2.33;;;1.67;;
68757;SDS011;55747;51.998;4.466;2022-08-11T13:26:36;3.22;;;1.80;;
68757;SDS011;55747;51.998;4.466;2022-08-11T13:29:02;3.08;;;1.80;;
68757;SDS011;55747;51.998;4.466;2022-08-11T13:31:29;5.45;;;1.80;;
68757;SDS011;55747;51.998;4.466;2022-08-11T13:33:54;3.67;;;1.67;;
68757;SDS011;55747;51.998;4.466;2022-08-11T13:36:21;4.03;;;1.60;;
68757;SDS011;55747;51.998;4.466;2022-08-11T13:38:54;4.20;;;1.50;;
68757;SDS011;55747;51.998;4.466;2022-08-11T13:41:22;5.45;;;1.73;;
68757;SDS011;55747;51.998;4.466;2022-08-11T13:44:03;3.88;;;1.65;;
68757;SDS011;55747;51.998;4.466;2022-08-11T13:46:30;4.10;;;1.65;;
68757;SDS011;55747;51.998;4.466;2022-08-11T13:49:03;5.55;;;2.05;;
68757;SDS011;55747;51.998;4.466;2022-08-11T13:51:31;2.78;;;2.05;;
68757;SDS011;55747;51.998;4.466;2022-08-11T13:53:58;4.30;;;1.73;;
68757;SDS011;55747;51.998;4.466;2022-08-11T13:56:26;4.68;;;2.08;;
68757;SDS011;55747;51.998;4.466;2022-08-11T13:58:53;12.45;;;2.40;;
68757;SDS011;55747;51.998;4.466;2022-08-11T14:01:19;6.45;;;2.13;;
68757;SDS011;55747;51.998;4.466;2022-08-11T14:03:46;6.22;;;1.98;;
68757;SDS011;55747;51.998;4.466;2022-08-11T14:06:13;6.40;;;2.10;;
68757;SDS011;55747;51.998;4.466;2022-08-11T14:08:42;4.07;;;2.10;;
68757;SDS011;55747;51.998;4.466;2022-08-11T14:11:08;7.68;;;2.10;;
68757;SDS011;55747;51.998;4.466;2022-08-11T14:13:53;4.05;;;2.28;;
68757;SDS011;55747;51.998;4.466;2022-08-11T14:16:23;3.17;;;2.08;;
68757;SDS011;55747;51.998;4.466;2022-08-11T14:18:53;4.65;;;1.98;;
68757;SDS011;55747;51.998;4.466;2022-08-11T14:21:22;4.00;;;1.92;;
68757;SDS011;55747;51.998;4.466;2022-08-11T14:24:07;3.28;;;2.30;;
68757;SDS011;55747;51.998;4.466;2022-08-11T14:26:35;4.50;;;2.20;;
68757;SDS011;55747;51.998;4.466;2022-08-11T14:29:13;5.03;;;2.10;;
68757;SDS011;55747;51.998;4.466;2022-08-11T14:31:45;6.25;;;1.88;;
68757;SDS011;55747;51.998;4.466;2022-08-11T14:34:13;3.78;;;2.40;;
68757;SDS011;55747;51.998;4.466;2022-08-11T14:36:43;5.07;;;2.05;;
68757;SDS011;55747;51.998;4.466;2022-08-11T14:39:12;3.95;;;2.20;;
68757;SDS011;55747;51.998;4.466;2022-08-11T14:41:45;5.05;;;2.10;;
68757;SDS011;55747;51.998;4.466;2022-08-11T14:44:34;3.25;;;2.30;;
68757;SDS011;55747;51.998;4.466;2022-08-11T14:47:21;5.40;;;2.20;;
68757;SDS011;55747;51.998;4.466;2022-08-11T14:49:48;3.53;;;2.28;;
68757;SDS011;55747;51.998;4.466;2022-08-11T14:52:16;3.85;;;2.15;;
68757;SDS011;55747;51.998;4.466;2022-08-11T14:54:45;3.20;;;2.40;;
68757;SDS011;55747;51.998;4.466;2022-08-11T14:57:32;4.85;;;2.33;;
68757;SDS011;55747;51.998;4.466;2022-08-11T15:00:00;4.20;;;2.08;;
68757;SDS011;55747;51.998;4.466;2022-08-11T15:02:27;5.38;;;2.13;;
68757;SDS011;55747;51.998;4.466;2022-08-11T15:05:13;3.78;;;2.08;;
68757;SDS011;55747;51.998;4.466;2022-08-11T15:07:40;8.77;;;2.45;;
68757;SDS011;55747;51.998;4.466;2022-08-11T15:10:06;8.10;;;2.20;;
68757;SDS011;55747;51.998;4.466;2022-08-11T15:12:34;4.50;;;2.10;;
68757;SDS011;55747;51.998;4.466;2022-08-11T15:15:02;4.25;;;2.05;;
68757;SDS011;55747;51.998;4.466;2022-08-11T15:17:53;3.83;;;2.22;;
68757;SDS011;55747;51.998;4.466;2022-08-11T15:20:20;7.30;;;1.98;;
68757;SDS011;55747;51.998;4.466;2022-08-11T15:23:06;6.03;;;2.08;;
68757;SDS011;55747;51.998;4.466;2022-08-11T15:25:55;7.80;;;2.13;;
68757;SDS011;55747;51.998;4.466;2022-08-11T15:28:23;5.03;;;2.30;;
68757;SDS011;55747;51.998;4.466;2022-08-11T15:31:10;4.15;;;2.22;;
68757;SDS011;55747;51.998;4.466;2022-08-11T15:33:54;4.53;;;2.33;;
68757;SDS011;55747;51.998;4.466;2022-08-11T15:36:42;3.72;;;2.30;;
68757;SDS011;55747;51.998;4.466;2022-08-11T15:39:31;6.00;;;2.10;;
68757;SDS011;55747;51.998;4.466;2022-08-11T15:41:59;5.97;;;2.30;;
68757;SDS011;55747;51.998;4.466;2022-08-11T15:44:50;4.22;;;2.08;;
68757;SDS011;55747;51.998;4.466;2022-08-11T15:47:47;4.43;;;2.05;;
68757;SDS011;55747;51.998;4.466;2022-08-11T15:50:22;6.00;;;2.10;;
68757;SDS011;55747;51.998;4.466;2022-08-11T15:55:44;5.97;;;2.40;;
68757;SDS011;55747;51.998;4.466;2022-08-11T15:58:11;2.97;;;2.03;;
68757;SDS011;55747;51.998;4.466;2022-08-11T16:00:56;5.13;;;2.03;;
68757;SDS011;55747;51.998;4.466;2022-08-11T16:03:56;4.43;;;2.40;;
68757;SDS011;55747;51.998;4.466;2022-08-11T16:06:38;6.07;;;2.17;;
68757;SDS011;55747;51.998;4.466;2022-08-11T16:12:22;4.20;;;1.90;;
68757;SDS011;55747;51.998;4.466;2022-08-11T16:14:55;5.45;;;2.40;;
68757;SDS011;55747;51.998;4.466;2022-08-11T16:17:48;3.70;;;2.10;;
68757;SDS011;55747;51.998;4.466;2022-08-11T16:20:17;4.22;;;2.10;;
68757;SDS011;55747;51.998;4.466;2022-08-11T16:22:46;4.65;;;2.05;;
68757;SDS011;55747;51.998;4.466;2022-08-11T16:25:21;3.72;;;1.80;;
68757;SDS011;55747;51.998;4.466;2022-08-11T16:27:49;3.22;;;1.88;;
68757;SDS011;55747;51.998;4.466;2022-08-11T16:30:27;5.63;;;1.90;;
68757;SDS011;55747;51.998;4.466;2022-08-11T16:32:55;3.95;;;1.90;;
68757;SDS011;55747;51.998;4.466;2022-08-11T16:35:24;5.57;;;1.95;;
68757;SDS011;55747;51.998;4.466;2022-08-11T16:38:10;3.22;;;2.00;;
68757;SDS011;55747;51.998;4.466;2022-08-11T16:40:56;7.50;;;2.10;;
68757;SDS011;55747;51.998;4.466;2022-08-11T16:43:25;5.13;;;2.20;;
68757;SDS011;55747;51.998;4.466;2022-08-11T16:46:14;3.03;;;1.80;;
68757;SDS011;55747;51.998;4.466;2022-08-11T16:49:03;4.55;;;1.83;;
68757;SDS011;55747;51.998;4.466;2022-08-11T16:51:30;11.00;;;2.10;;
68757;SDS011;55747;51.998;4.466;2022-08-11T16:53:56;4.07;;;2.00;;
68757;SDS011;55747;51.998;4.466;2022-08-11T16:56:23;4.53;;;1.90;;
68757;SDS011;55747;51.998;4.466;2022-08-11T16:58:55;5.57;;;1.83;;
68757;SDS011;55747;51.998;4.466;2022-08-11T17:01:59;6.45;;;2.30;;
68757;SDS011;55747;51.998;4.466;2022-08-11T17:04:37;4.23;;;1.90;;
68757;SDS011;55747;51.998;4.466;2022-08-11T17:07:24;2.47;;;1.75;;
68757;SDS011;55747;51.998;4.466;2022-08-11T17:10:12;5.97;;;1.90;;
68757;SDS011;55747;51.998;4.466;2022-08-11T17:13:00;6.55;;;2.55;;
68757;SDS011;55747;51.998;4.466;2022-08-11T17:15:42;5.63;;;2.08;;
68757;SDS011;55747;51.998;4.466;2022-08-11T17:18:30;3.85;;;2.30;;
68757;SDS011;55747;51.998;4.466;2022-08-11T17:21:08;4.10;;;1.83;;
68757;SDS011;55747;51.998;4.466;2022-08-11T17:23:38;4.57;;;1.90;;
68757;SDS011;55747;51.998;4.466;2022-08-11T17:26:13;2.45;;;1.70;;
68757;SDS011;55747;51.998;4.466;2022-08-11T17:28:42;7.00;;;2.00;;
68757;SDS011;55747;51.998;4.466;2022-08-11T17:31:21;6.18;;;1.83;;
68757;SDS011;55747;51.998;4.466;2022-08-11T17:34:09;5.25;;;1.95;;
68757;SDS011;55747;51.998;4.466;2022-08-11T17:36:55;4.32;;;2.00;;
68757;SDS011;55747;51.998;4.466;2022-08-11T17:39:25;3.25;;;1.90;;
68757;SDS011;55747;51.998;4.466;2022-08-11T17:41:53;2.63;;;1.80;;
68757;SDS011;55747;51.998;4.466;2022-08-11T17:44:38;3.83;;;1.70;;
68757;SDS011;55747;51.998;4.466;2022-08-11T17:47:38;4.32;;;1.80;;
68757;SDS011;55747;51.998;4.466;2022-08-11T17:50:34;4.10;;;1.95;;
68757;SDS011;55747;51.998;4.466;2022-08-11T17:53:00;4.18;;;1.70;;
68757;SDS011;55747;51.998;4.466;2022-08-11T17:55:45;3.08;;;1.70;;
68757;SDS011;55747;51.998;4.466;2022-08-11T17:58:31;7.22;;;1.95;;
68757;SDS011;55747;51.998;4.466;2022-08-11T18:01:18;3.08;;;1.65;;
68757;SDS011;55747;51.998;4.466;2022-08-11T18:03:45;3.92;;;1.88;;
68757;SDS011;55747;51.998;4.466;2022-08-11T18:06:14;3.47;;;1.80;;
68757;SDS011;55747;51.998;4.466;2022-08-11T18:08:45;4.68;;;1.90;;
68757;SDS011;55747;51.998;4.466;2022-08-11T18:11:39;4.85;;;1.90;;
68757;SDS011;55747;51.998;4.466;2022-08-11T18:14:24;5.47;;;1.80;;
68757;SDS011;55747;51.998;4.466;2022-08-11T18:17:15;5.03;;;1.95;;
68757;SDS011;55747;51.998;4.466;2022-08-11T18:19:59;4.50;;;1.63;;
68757;SDS011;55747;51.998;4.466;2022-08-11T18:22:43;5.57;;;1.80;;
68757;SDS011;55747;51.998;4.466;2022-08-11T18:25:33;4.07;;;2.00;;
68757;SDS011;55747;51.998;4.466;2022-08-11T18:28:28;4.28;;;2.00;;
68757;SDS011;55747;51.998;4.466;2022-08-11T18:31:24;9.30;;;1.80;;
68757;SDS011;55747;51.998;4.466;2022-08-11T18:34:09;4.75;;;2.08;;
68757;SDS011;55747;51.998;4.466;2022-08-11T18:37:13;5.20;;;1.90;;
68757;SDS011;55747;51.998;4.466;2022-08-11T18:40:23;3.17;;;2.00;;
68757;SDS011;55747;51.998;4.466;2022-08-11T18:43:13;3.38;;;1.75;;
68757;SDS011;55747;51.998;4.466;2022-08-11T18:46:06;3.55;;;1.95;;
68757;SDS011;55747;51.998;4.466;2022-08-11T18:52:27;2.45;;;1.90;;
68757;SDS011;55747;51.998;4.466;2022-08-11T18:55:21;5.90;;;2.20;;
68757;SDS011;55747;51.998;4.466;2022-08-11T18:58:09;5.82;;;2.05;;
68757;SDS011;55747;51.998;4.466;2022-08-11T19:01:07;2.40;;;1.90;;
68757;SDS011;55747;51.998;4.466;2022-08-11T19:03:55;2.83;;;2.05;;
68757;SDS011;55747;51.998;4.466;2022-08-11T19:06:47;5.13;;;2.08;;
68757;SDS011;55747;51.998;4.466;2022-08-11T19:09:36;4.03;;;1.77;;
68757;SDS011;55747;51.998;4.466;2022-08-11T19:12:24;3.63;;;2.10;;
68757;SDS011;55747;51.998;4.466;2022-08-11T19:15:13;6.82;;;2.13;;
68757;SDS011;55747;51.998;4.466;2022-08-11T19:17:58;4.88;;;2.00;;
68757;SDS011;55747;51.998;4.466;2022-08-11T19:20:44;6.15;;;2.10;;
68757;SDS011;55747;51.998;4.466;2022-08-11T19:23:33;4.90;;;2.20;;
68757;SDS011;55747;51.998;4.466;2022-08-11T19:26:19;3.97;;;2.10;;
68757;SDS011;55747;51.998;4.466;2022-08-11T19:29:06;4.35;;;2.17;;
68757;SDS011;55747;51.998;4.466;2022-08-11T19:31:52;6.80;;;2.40;;